createdAt,value
2023-01-27T00:00:57.388Z,59.73
2023-01-27T00:01:59.345Z,60.26
2023-01-27T00:03:01.488Z,60.80
2023-01-27T00:04:03.945Z,61.28
2023-01-27T00:05:12.607Z,61.77
2023-01-27T00:06:14.595Z,62.25
2023-01-27T00:07:17.084Z,62.83
2023-01-27T00:08:19.477Z,63.50
2023-01-27T00:09:21.365Z,63.17
2023-01-27T00:10:23.500Z,62.00
2023-01-27T00:11:44.135Z,60.47
2023-01-27T00:13:06.946Z,58.27
2023-01-27T00:14:08.932Z,56.34
2023-01-27T00:15:13.839Z,56.32
2023-01-27T00:16:15.817Z,56.95
2023-01-27T00:17:17.707Z,57.75
2023-01-27T00:18:19.547Z,58.60
2023-01-27T00:19:21.518Z,59.40
2023-01-27T00:20:43.171Z,60.11
2023-01-27T00:22:03.709Z,60.84
2023-01-27T00:23:24.719Z,61.41
2023-01-27T00:24:36.002Z,61.96
2023-01-27T00:25:37.901Z,62.48
2023-01-27T00:26:40.157Z,63.17
2023-01-27T00:27:42.234Z,63.35
2023-01-27T00:28:46.171Z,62.45
2023-01-27T00:29:47.962Z,60.88
2023-01-27T00:30:50.539Z,59.33
2023-01-27T00:32:11.585Z,57.43
2023-01-27T00:33:26.988Z,56.03
2023-01-27T00:34:28.915Z,56.41
2023-01-27T00:35:30.821Z,57.19
2023-01-27T00:36:32.626Z,58.00
2023-01-27T00:37:34.806Z,58.76
2023-01-27T00:38:40.894Z,59.52
2023-01-27T00:39:42.928Z,60.32
2023-01-27T00:41:05.226Z,60.95
2023-01-27T00:42:07.460Z,61.46
2023-01-27T00:43:10.866Z,61.93
2023-01-27T00:44:13.539Z,62.43
2023-01-27T00:45:34.666Z,63.11
2023-01-27T00:46:36.537Z,63.32
2023-01-27T00:47:38.499Z,62.29
2023-01-27T00:48:40.692Z,60.80
2023-01-27T00:49:42.617Z,59.18
2023-01-27T00:50:44.642Z,57.31
2023-01-27T00:51:46.592Z,56.12
2023-01-27T00:52:48.598Z,56.04
2023-01-27T00:53:50.772Z,56.61
2023-01-27T00:54:52.625Z,57.30
2023-01-27T00:55:54.520Z,58.01
2023-01-27T00:56:56.385Z,58.69
2023-01-27T00:57:58.227Z,59.38
2023-01-27T00:59:00.855Z,59.96
2023-01-27T01:00:04.922Z,60.45
2023-01-27T01:01:11.108Z,60.89
2023-01-27T01:02:31.057Z,61.41
2023-01-27T01:03:35.433Z,61.80
2023-01-27T01:04:37.248Z,62.25
2023-01-27T01:05:39.291Z,62.93
2023-01-27T01:06:41.104Z,63.54
2023-01-27T01:07:43.044Z,63.09
2023-01-27T01:08:46.106Z,61.81
2023-01-27T01:09:48.156Z,60.11
2023-01-27T01:10:50.547Z,58.35
2023-01-27T01:11:52.438Z,56.61
2023-01-27T01:12:54.319Z,56.17
2023-01-27T01:13:56.790Z,56.58
2023-01-27T01:14:58.860Z,57.28
2023-01-27T01:16:13.956Z,57.93
2023-01-27T01:17:16.219Z,58.76
2023-01-27T01:18:18.095Z,59.42
2023-01-27T01:19:20.497Z,59.99
2023-01-27T01:20:22.402Z,60.49
2023-01-27T01:21:24.708Z,60.99
2023-01-27T01:22:26.562Z,61.54
2023-01-27T01:23:28.579Z,62.05
2023-01-27T01:24:31.018Z,62.52
2023-01-27T01:25:34.233Z,63.18
2023-01-27T01:26:36.825Z,63.26
2023-01-27T01:27:38.807Z,62.29
2023-01-27T01:28:40.961Z,60.83
2023-01-27T01:29:42.825Z,59.31
2023-01-27T01:30:44.671Z,57.43
2023-01-27T01:31:46.719Z,56.14
2023-01-27T01:32:48.653Z,56.13
2023-01-27T01:33:51.657Z,56.75
2023-01-27T01:34:53.511Z,57.51
2023-01-27T01:35:55.510Z,58.24
2023-01-27T01:36:57.382Z,58.94
2023-01-27T01:37:59.214Z,59.52
2023-01-27T01:39:01.148Z,60.15
2023-01-27T01:40:03.473Z,60.78
2023-01-27T01:41:07.550Z,61.35
2023-01-27T01:42:09.483Z,61.84
2023-01-27T01:43:16.867Z,62.31
2023-01-27T01:44:24.881Z,63.02
2023-01-27T01:45:33.777Z,63.51
2023-01-27T01:46:35.693Z,62.68
2023-01-27T01:47:38.356Z,61.27
2023-01-27T01:48:58.507Z,59.69
2023-01-27T01:50:00.426Z,57.26
2023-01-27T01:51:13.773Z,56.09
2023-01-27T01:52:21.487Z,56.17
2023-01-27T01:53:33.053Z,56.94
2023-01-27T01:54:51.974Z,57.83
2023-01-27T01:55:54.038Z,58.71
2023-01-27T01:57:23.216Z,59.29
2023-01-27T01:58:28.180Z,60.09
2023-01-27T01:59:44.439Z,60.69
2023-01-27T02:00:46.502Z,61.34
2023-01-27T02:01:50.693Z,61.88
2023-01-27T02:02:54.689Z,62.43
2023-01-27T02:04:03.797Z,63.15
2023-01-27T02:05:11.788Z,63.36
2023-01-27T02:06:14.835Z,62.31
2023-01-27T02:07:28.522Z,60.91
2023-01-27T02:08:51.827Z,59.10
2023-01-27T02:09:56.497Z,56.63
2023-01-27T02:10:58.593Z,56.04
2023-01-27T02:12:00.796Z,56.25
2023-01-27T02:13:03.534Z,56.83
2023-01-27T02:14:05.507Z,57.60
2023-01-27T02:15:11.433Z,58.35
2023-01-27T02:16:14.192Z,59.05
2023-01-27T02:17:16.649Z,59.80
2023-01-27T02:18:18.827Z,60.52
2023-01-27T02:19:51.524Z,61.11
2023-01-27T02:20:55.358Z,61.86
2023-01-27T02:21:59.263Z,62.31
2023-01-27T02:23:13.169Z,62.79
2023-01-27T02:24:15.147Z,63.26
2023-01-27T02:25:32.648Z,62.65
2023-01-27T02:26:42.941Z,60.98
2023-01-27T02:27:44.871Z,59.35
2023-01-27T02:28:55.252Z,57.64
2023-01-27T02:29:57.284Z,56.53
2023-01-27T02:30:59.277Z,56.76
2023-01-27T02:32:01.541Z,57.51
2023-01-27T02:33:03.571Z,58.29
2023-01-27T02:34:13.959Z,59.07
2023-01-27T02:35:41.798Z,59.77
2023-01-27T02:36:54.322Z,60.75
2023-01-27T02:37:58.129Z,61.50
2023-01-27T02:39:03.015Z,62.00
2023-01-27T02:40:06.649Z,62.46
2023-01-27T02:41:16.339Z,63.24
2023-01-27T02:42:19.597Z,63.45
2023-01-27T02:43:21.536Z,62.51
2023-01-27T02:44:23.643Z,61.11
2023-01-27T02:45:26.545Z,59.64
2023-01-27T02:46:29.328Z,57.84
2023-01-27T02:47:31.473Z,56.41
2023-01-27T02:48:34.376Z,56.26
2023-01-27T02:49:36.463Z,56.85
2023-01-27T02:50:38.584Z,57.66
2023-01-27T02:51:41.206Z,58.41
2023-01-27T02:52:43.683Z,59.14
2023-01-27T02:53:47.000Z,59.71
2023-01-27T02:54:49.227Z,60.22
2023-01-27T02:55:51.476Z,60.84
2023-01-27T02:56:53.400Z,61.40
2023-01-27T02:57:57.120Z,61.98
2023-01-27T02:59:42.422Z,62.94
2023-01-27T03:00:45.356Z,63.46
2023-01-27T03:01:47.733Z,62.96
2023-01-27T03:02:49.729Z,61.71
2023-01-27T03:03:52.521Z,60.19
2023-01-27T03:04:55.053Z,58.48
2023-01-27T03:05:57.129Z,56.73
2023-01-27T03:06:58.964Z,56.21
2023-01-27T03:08:02.354Z,56.59
2023-01-27T03:09:06.003Z,57.27
2023-01-27T03:10:09.698Z,58.07
2023-01-27T03:11:11.893Z,58.88
2023-01-27T03:12:20.094Z,59.55
2023-01-27T03:13:23.676Z,60.21
2023-01-27T03:14:45.505Z,60.79
2023-01-27T03:16:07.066Z,61.41
2023-01-27T03:17:27.634Z,62.01
2023-01-27T03:18:29.883Z,62.76
2023-01-27T03:19:31.827Z,63.61
2023-01-27T03:20:33.634Z,63.58
2023-01-27T03:21:35.544Z,62.54
2023-01-27T03:22:37.578Z,61.02
2023-01-27T03:23:39.888Z,59.41
2023-01-27T03:24:41.881Z,57.50
2023-01-27T03:25:48.293Z,56.19
2023-01-27T03:26:50.413Z,56.15
2023-01-27T03:27:53.264Z,56.82
2023-01-27T03:29:37.290Z,57.99
2023-01-27T03:30:41.624Z,59.12
2023-01-27T03:31:49.782Z,60.12
2023-01-27T03:32:51.696Z,60.95
2023-01-27T03:34:23.709Z,61.87
2023-01-27T03:35:34.545Z,62.46
2023-01-27T03:36:55.319Z,63.28
2023-01-27T03:38:16.639Z,63.32
2023-01-27T03:39:37.618Z,61.82
2023-01-27T03:40:58.139Z,59.88
2023-01-27T03:42:18.930Z,57.69
2023-01-27T03:43:39.425Z,56.47
2023-01-27T03:45:00.204Z,56.93
2023-01-27T03:46:18.819Z,57.95
2023-01-27T03:47:20.935Z,59.06
2023-01-27T03:48:23.300Z,59.96
2023-01-27T03:49:25.864Z,60.82
2023-01-27T03:50:37.884Z,61.52
2023-01-27T03:51:40.280Z,62.23
2023-01-27T03:53:02.048Z,63.08
2023-01-27T03:54:03.989Z,63.85
2023-01-27T03:55:09.566Z,63.08
2023-01-27T03:56:12.703Z,61.59
2023-01-27T03:57:15.041Z,60.16
2023-01-27T03:58:24.942Z,58.59
2023-01-27T03:59:26.798Z,56.95
2023-01-27T04:00:28.703Z,56.63
2023-01-27T04:01:30.659Z,57.21
2023-01-27T04:02:52.105Z,58.05
2023-01-27T04:04:12.864Z,59.20
2023-01-27T04:05:33.653Z,60.38
2023-01-27T04:06:58.451Z,61.45
2023-01-27T04:08:00.889Z,62.50
2023-01-27T04:09:03.765Z,63.41
2023-01-27T04:10:07.054Z,63.70
2023-01-27T04:11:30.261Z,62.82
2023-01-27T04:12:33.777Z,60.75
2023-01-27T04:13:35.643Z,59.16
2023-01-27T04:14:42.251Z,57.32
2023-01-27T04:15:44.226Z,56.40
2023-01-27T04:16:46.252Z,56.69
2023-01-27T04:17:48.048Z,57.50
2023-01-27T04:18:50.530Z,58.48
2023-01-27T04:19:52.783Z,59.51
2023-01-27T04:20:54.594Z,60.46
2023-01-27T04:21:57.962Z,61.26
2023-01-27T04:23:00.203Z,61.92
2023-01-27T04:24:04.346Z,62.60
2023-01-27T04:25:08.564Z,63.49
2023-01-27T04:26:10.424Z,63.57
2023-01-27T04:27:20.323Z,62.61
2023-01-27T04:28:41.703Z,61.07
2023-01-27T04:29:45.245Z,59.19
2023-01-27T04:30:47.581Z,57.52
2023-01-27T04:31:50.258Z,56.71
2023-01-27T04:32:52.229Z,57.06
2023-01-27T04:33:54.261Z,57.87
2023-01-27T04:34:56.222Z,58.80
2023-01-27T04:35:58.085Z,59.76
2023-01-27T04:37:00.621Z,60.70
2023-01-27T04:38:02.501Z,61.57
2023-01-27T04:39:04.427Z,62.37
2023-01-27T04:40:07.513Z,63.33
2023-01-27T04:41:09.900Z,63.91
2023-01-27T04:42:11.934Z,63.35
2023-01-27T04:43:14.631Z,62.16
2023-01-27T04:44:16.541Z,60.76
2023-01-27T04:45:18.387Z,59.42
2023-01-27T04:46:20.249Z,57.84
2023-01-27T04:47:22.224Z,56.87
2023-01-27T04:48:24.388Z,57.14
2023-01-27T04:49:27.245Z,57.95
2023-01-27T04:50:29.263Z,58.94
2023-01-27T04:51:32.820Z,59.93
2023-01-27T04:52:34.913Z,60.93
2023-01-27T04:53:36.826Z,61.85
2023-01-27T04:54:38.595Z,62.77
2023-01-27T04:55:45.229Z,63.76
2023-01-27T04:57:03.673Z,63.77
2023-01-27T04:58:05.803Z,62.42
2023-01-27T04:59:13.292Z,61.06
2023-01-27T05:00:17.421Z,59.62
2023-01-27T05:01:20.423Z,58.04
2023-01-27T05:02:22.236Z,56.95
2023-01-27T05:03:24.210Z,57.06
2023-01-27T05:04:27.262Z,57.79
2023-01-27T05:05:29.118Z,58.72
2023-01-27T05:06:30.980Z,59.68
2023-01-27T05:07:33.466Z,60.61
2023-01-27T05:08:35.338Z,61.51
2023-01-27T05:09:37.247Z,62.33
2023-01-27T05:10:39.085Z,63.28
2023-01-27T05:11:41.052Z,63.91
2023-01-27T05:12:42.859Z,63.45
2023-01-27T05:13:46.048Z,62.28
2023-01-27T05:14:47.927Z,60.86
2023-01-27T05:15:50.069Z,59.54
2023-01-27T05:16:52.132Z,58.04
2023-01-27T05:17:54.475Z,57.05
2023-01-27T05:18:56.405Z,57.26
2023-01-27T05:19:58.244Z,58.05
2023-01-27T05:21:01.710Z,59.04
2023-01-27T05:22:03.614Z,60.11
2023-01-27T05:23:59.104Z,61.10
2023-01-27T05:25:01.338Z,62.77
2023-01-27T05:26:06.962Z,63.73
2023-01-27T05:27:08.786Z,63.72
2023-01-27T05:28:11.262Z,62.77
2023-01-27T05:29:13.067Z,61.38
2023-01-27T05:30:14.943Z,60.01
2023-01-27T05:31:20.459Z,58.68
2023-01-27T05:32:22.568Z,57.31
2023-01-27T05:33:24.574Z,57.22
2023-01-27T05:34:26.449Z,57.92
2023-01-27T05:35:28.544Z,58.90
2023-01-27T05:36:31.084Z,59.97
2023-01-27T05:37:32.942Z,61.03
2023-01-27T05:38:35.535Z,62.02
2023-01-27T05:39:37.510Z,63.16
2023-01-27T05:40:39.384Z,64.24
2023-01-27T05:41:41.382Z,64.09
2023-01-27T05:42:43.262Z,62.98
2023-01-27T05:43:47.332Z,61.54
2023-01-27T05:44:50.522Z,60.03
2023-01-27T05:45:52.545Z,58.50
2023-01-27T05:46:54.366Z,57.19
2023-01-27T05:47:56.170Z,57.17
2023-01-27T05:49:01.321Z,57.99
2023-01-27T05:50:03.259Z,59.15
2023-01-27T05:51:06.343Z,60.23
2023-01-27T05:52:08.396Z,61.25
2023-01-27T05:53:10.286Z,62.04
2023-01-27T05:54:12.100Z,62.80
2023-01-27T05:55:14.489Z,63.66
2023-01-27T05:56:19.146Z,63.59
2023-01-27T05:57:21.003Z,62.59
2023-01-27T05:58:24.127Z,61.34
2023-01-27T05:59:26.167Z,60.03
2023-01-27T06:00:27.984Z,58.66
2023-01-27T06:01:34.118Z,57.25
2023-01-27T06:02:36.046Z,57.10
2023-01-27T06:03:39.413Z,57.68
2023-01-27T06:04:41.306Z,58.51
2023-01-27T06:05:57.186Z,59.44
2023-01-27T06:06:59.115Z,60.71
2023-01-27T06:08:00.905Z,61.72
2023-01-27T06:09:02.821Z,62.66
2023-01-27T06:10:05.885Z,63.66
2023-01-27T06:11:09.332Z,63.85
2023-01-27T06:12:11.161Z,62.94
2023-01-27T06:13:13.437Z,61.56
2023-01-27T06:14:15.382Z,60.16
2023-01-27T06:15:17.324Z,58.71
2023-01-27T06:16:22.504Z,57.18
2023-01-27T06:17:24.421Z,56.86
2023-01-27T06:18:26.302Z,57.50
2023-01-27T06:19:28.299Z,58.44
2023-01-27T06:20:30.448Z,59.42
2023-01-27T06:21:32.369Z,60.33
2023-01-27T06:22:34.395Z,61.13
2023-01-27T06:23:36.418Z,61.81
2023-01-27T06:24:38.299Z,62.43
2023-01-27T06:25:43.652Z,63.25
2023-01-27T06:26:45.417Z,63.64
2023-01-27T06:27:48.560Z,62.94
2023-01-27T06:28:50.439Z,61.73
2023-01-27T06:29:52.368Z,60.48
2023-01-27T06:30:54.530Z,59.27
2023-01-27T06:31:56.613Z,57.79
2023-01-27T06:32:58.439Z,57.13
2023-01-27T06:34:00.616Z,57.56
2023-01-27T06:35:02.969Z,58.47
2023-01-27T06:36:09.375Z,59.45
2023-01-27T06:37:11.239Z,60.32
2023-01-27T06:38:15.461Z,61.03
2023-01-27T06:39:17.448Z,61.83
2023-01-27T06:40:19.404Z,62.74
2023-01-27T06:41:21.718Z,63.84
2023-01-27T06:42:23.830Z,64.04
2023-01-27T06:43:26.025Z,63.19
2023-01-27T06:44:27.942Z,61.88
2023-01-27T06:45:30.549Z,60.54
2023-01-27T06:46:33.205Z,59.22
2023-01-27T06:47:35.149Z,57.74
2023-01-27T06:48:38.088Z,57.11
2023-01-27T06:49:39.917Z,57.51
2023-01-27T06:50:42.450Z,58.33
2023-01-27T06:51:44.633Z,59.35
2023-01-27T06:52:46.620Z,60.29
2023-01-27T06:53:48.423Z,61.20
2023-01-27T06:54:50.283Z,61.98
2023-01-27T06:55:57.071Z,62.72
2023-01-27T06:56:59.257Z,63.68
2023-01-27T06:58:02.608Z,63.65
2023-01-27T06:59:05.043Z,62.57
2023-01-27T07:00:08.099Z,61.14
2023-01-27T07:01:10.321Z,59.74
2023-01-27T07:02:13.284Z,58.23
2023-01-27T07:03:18.300Z,57.02
2023-01-27T07:04:20.183Z,57.13
2023-01-27T07:05:22.051Z,57.90
2023-01-27T07:06:23.903Z,58.79
2023-01-27T07:07:26.180Z,59.66
2023-01-27T07:08:28.079Z,60.54
2023-01-27T07:09:33.551Z,61.31
2023-01-27T07:10:39.617Z,62.11
2023-01-27T07:11:41.410Z,62.97
2023-01-27T07:12:43.265Z,63.90
2023-01-27T07:13:45.169Z,63.74
2023-01-27T07:14:47.049Z,62.65
2023-01-27T07:15:55.825Z,61.22
2023-01-27T07:16:57.779Z,59.64
2023-01-27T07:18:01.357Z,58.01
2023-01-27T07:19:03.232Z,56.81
2023-01-27T07:20:07.186Z,56.96
2023-01-27T07:21:09.318Z,57.77
2023-01-27T07:22:11.183Z,58.74
2023-01-27T07:23:13.343Z,59.72
2023-01-27T07:24:15.273Z,60.58
2023-01-27T07:25:17.377Z,61.43
2023-01-27T07:26:24.886Z,62.22
2023-01-27T07:27:28.354Z,63.34
2023-01-27T07:28:30.376Z,63.99
2023-01-27T07:29:32.261Z,63.48
2023-01-27T07:30:35.158Z,62.25
2023-01-27T07:31:37.065Z,60.80
2023-01-27T07:32:38.941Z,59.40
2023-01-27T07:33:40.974Z,57.80
2023-01-27T07:34:42.883Z,56.87
2023-01-27T07:35:49.852Z,57.03
2023-01-27T07:36:51.956Z,57.79
2023-01-27T07:37:53.833Z,58.73
2023-01-27T07:38:55.788Z,59.65
2023-01-27T07:39:57.621Z,60.54
2023-01-27T07:41:05.225Z,61.43
2023-01-27T07:42:08.746Z,62.30
2023-01-27T07:43:12.129Z,63.20
2023-01-27T07:44:15.618Z,63.64
2023-01-27T07:45:17.443Z,63.05
2023-01-27T07:46:19.623Z,61.87
2023-01-27T07:47:23.410Z,60.47
2023-01-27T07:48:25.861Z,58.91
2023-01-27T07:49:27.767Z,57.16
2023-01-27T07:50:29.985Z,56.61
2023-01-27T07:51:31.957Z,57.14
2023-01-27T07:52:33.927Z,58.03
2023-01-27T07:53:35.999Z,59.06
2023-01-27T07:54:37.865Z,60.09
2023-01-27T07:55:39.848Z,60.97
2023-01-27T07:56:41.861Z,61.76
2023-01-27T07:57:43.980Z,62.63
2023-01-27T07:58:45.862Z,63.50
2023-01-27T07:59:48.393Z,63.46
2023-01-27T08:00:50.400Z,62.45
2023-01-27T08:01:52.403Z,61.16
2023-01-27T08:02:56.024Z,59.87
2023-01-27T08:03:58.621Z,58.41
2023-01-27T08:05:00.789Z,57.11
2023-01-27T08:06:11.528Z,56.96
2023-01-27T08:07:13.335Z,57.73
2023-01-27T08:08:15.256Z,58.69
2023-01-27T08:09:17.243Z,59.68
2023-01-27T08:10:19.958Z,60.67
2023-01-27T08:11:21.861Z,61.57
2023-01-27T08:12:23.836Z,62.42
2023-01-27T08:13:26.064Z,63.33
2023-01-27T08:14:27.913Z,63.76
2023-01-27T08:15:29.981Z,63.05
2023-01-27T08:16:31.953Z,61.72
2023-01-27T08:17:33.826Z,60.30
2023-01-27T08:18:35.756Z,58.88
2023-01-27T08:19:37.629Z,57.33
2023-01-27T08:20:40.246Z,56.78
2023-01-27T08:21:42.126Z,57.27
2023-01-27T08:22:44.706Z,58.16
2023-01-27T08:23:46.976Z,59.11
2023-01-27T08:24:50.027Z,60.09
2023-01-27T08:25:54.070Z,61.02
2023-01-27T08:26:56.594Z,61.85
2023-01-27T08:27:58.444Z,62.50
2023-01-27T08:29:00.266Z,63.25
2023-01-27T08:30:02.132Z,63.43
2023-01-27T08:31:08.710Z,62.58
2023-01-27T08:32:11.780Z,61.08
2023-01-27T08:34:35.237Z,57.27
2023-01-27T08:35:38.781Z,56.43
2023-01-27T08:36:44.350Z,56.76
2023-01-27T08:37:48.765Z,57.59
2023-01-27T08:38:51.963Z,58.51
2023-01-27T08:39:53.787Z,59.38
2023-01-27T08:40:58.047Z,60.12
2023-01-27T08:42:04.473Z,60.99
2023-01-27T08:43:07.471Z,61.84
2023-01-27T08:44:09.326Z,62.54
2023-01-27T08:45:11.594Z,63.36
2023-01-27T08:46:13.971Z,63.53
2023-01-27T08:47:15.781Z,62.63
2023-01-27T08:48:17.591Z,61.20
2023-01-27T08:49:19.504Z,59.82
2023-01-27T08:50:21.449Z,58.24
2023-01-27T08:51:23.876Z,56.77
2023-01-27T08:52:27.796Z,56.54
2023-01-27T08:53:30.403Z,57.23
2023-01-27T08:54:32.302Z,58.07
2023-01-27T08:55:34.258Z,58.99
2023-01-27T08:56:36.167Z,59.86
2023-01-27T08:57:38.032Z,60.69
2023-01-27T08:58:41.104Z,61.45
2023-01-27T08:59:42.949Z,62.16
2023-01-27T09:00:45.151Z,62.82
2023-01-27T09:01:47.207Z,63.48
2023-01-27T09:02:53.098Z,63.07
2023-01-27T09:03:54.986Z,61.76
2023-01-27T09:04:57.050Z,60.32
2023-01-27T09:05:59.834Z,58.78
2023-01-27T09:07:01.724Z,56.94
2023-01-27T09:08:04.839Z,56.32
2023-01-27T09:09:11.430Z,56.69
2023-01-27T09:10:15.702Z,57.65
2023-01-27T09:11:18.252Z,58.67
2023-01-27T09:12:20.282Z,59.55
2023-01-27T09:13:22.486Z,60.34
2023-01-27T09:14:24.603Z,61.10
2023-01-27T09:15:26.580Z,61.72
2023-01-27T09:16:29.161Z,62.32
2023-01-27T09:18:02.057Z,63.01
2023-01-27T09:19:04.052Z,63.27
2023-01-27T09:20:06.853Z,62.21
2023-01-27T09:21:08.810Z,60.74
2023-01-27T09:22:10.643Z,59.26
2023-01-27T09:23:13.023Z,57.61
2023-01-27T09:24:18.048Z,56.65
2023-01-27T09:25:20.238Z,56.85
2023-01-27T09:26:22.261Z,57.60
2023-01-27T09:27:37.312Z,58.45
2023-01-27T09:28:41.177Z,59.19
2023-01-27T09:29:43.110Z,59.85
2023-01-27T09:30:46.503Z,60.63
2023-01-27T09:31:48.637Z,61.37
2023-01-27T09:32:51.362Z,62.04
2023-01-27T09:33:53.329Z,62.63
2023-01-27T09:34:55.443Z,63.39
2023-01-27T09:36:02.037Z,63.37
2023-01-27T09:37:10.691Z,62.34
2023-01-27T09:38:18.335Z,60.78
2023-01-27T09:39:22.245Z,59.24
2023-01-27T09:40:38.885Z,57.43
2023-01-27T09:42:03.526Z,56.55
2023-01-27T09:43:21.619Z,57.45
2023-01-27T09:44:26.496Z,58.58
2023-01-27T09:46:03.850Z,59.47
2023-01-27T09:47:11.796Z,60.73
2023-01-27T09:48:34.057Z,61.78
2023-01-27T09:50:17.294Z,62.76
2023-01-27T09:51:40.822Z,63.70
2023-01-27T09:53:04.748Z,62.71
2023-01-27T09:54:21.185Z,60.98
2023-01-27T09:56:02.903Z,59.41
2023-01-27T09:57:19.800Z,56.88
2023-01-27T09:58:24.895Z,56.78
2023-01-27T09:59:48.304Z,57.58
2023-01-27T10:01:07.081Z,58.94
2023-01-27T10:02:40.678Z,60.06
2023-01-27T10:03:45.307Z,61.32
2023-01-27T10:04:58.946Z,62.22
2023-01-27T10:06:39.419Z,63.31
2023-01-27T10:08:12.833Z,63.39
2023-01-27T10:09:55.057Z,61.55
2023-01-27T10:11:41.684Z,58.94
2023-01-27T10:13:11.221Z,56.36
2023-01-27T10:14:27.562Z,56.69
2023-01-27T10:16:01.937Z,57.74
2023-01-27T10:17:24.541Z,59.07
2023-01-27T10:18:53.818Z,59.92
2023-01-27T10:19:58.669Z,60.95
2023-01-27T10:21:38.009Z,61.53
2023-01-27T10:22:53.995Z,62.28
2023-01-27T10:24:28.577Z,62.92
2023-01-27T10:26:02.714Z,62.93
2023-01-27T10:27:18.199Z,61.01
2023-01-27T10:28:28.206Z,59.41
2023-01-27T10:29:51.739Z,57.36
2023-01-27T10:31:02.154Z,56.14
2023-01-27T10:32:39.817Z,56.69
2023-01-27T10:33:54.955Z,58.11
2023-01-27T10:35:21.202Z,59.22
2023-01-27T10:36:40.591Z,60.40
2023-01-27T10:38:05.159Z,61.22
2023-01-27T10:39:34.289Z,62.15
2023-01-27T10:41:15.239Z,63.34
2023-01-27T10:42:52.278Z,63.25
2023-01-27T10:44:27.941Z,61.18
2023-01-27T10:45:37.892Z,58.57
2023-01-27T10:47:06.475Z,56.61
2023-01-27T10:48:30.576Z,56.33
2023-01-27T10:49:38.740Z,57.19
2023-01-27T10:51:05.813Z,58.13
2023-01-27T10:52:20.915Z,59.14
2023-01-27T10:53:34.133Z,59.87
2023-01-27T10:54:55.812Z,60.62
2023-01-27T10:56:28.683Z,61.40
2023-01-27T10:57:56.712Z,62.02
2023-01-27T10:59:11.324Z,62.26
2023-01-27T11:02:24.453Z,63.32
2023-01-27T11:03:41.025Z,62.19
2023-01-27T11:04:58.676Z,60.39
2023-01-27T11:06:08.422Z,58.22
2023-01-27T11:07:19.380Z,56.43
2023-01-27T11:08:27.301Z,56.25
2023-01-27T11:09:34.268Z,56.90
2023-01-27T11:11:09.817Z,57.92
2023-01-27T11:12:16.154Z,59.34
2023-01-27T11:13:18.554Z,60.05
2023-01-27T11:14:50.915Z,60.66
2023-01-27T11:15:53.777Z,61.39
2023-01-27T11:17:01.632Z,61.97
2023-01-27T11:18:20.329Z,62.78
2023-01-27T11:19:35.928Z,63.77
2023-01-27T11:20:54.172Z,63.15
2023-01-27T11:22:07.841Z,61.44
2023-01-27T11:23:10.360Z,59.56
2023-01-27T11:24:36.603Z,57.69
2023-01-27T11:25:55.875Z,56.27
2023-01-27T11:27:17.725Z,56.80
2023-01-27T11:28:25.453Z,57.93
2023-01-27T11:29:42.782Z,58.88
2023-01-27T11:31:23.120Z,59.83
2023-01-27T11:32:52.228Z,61.00
2023-01-27T11:34:26.948Z,62.26
2023-01-27T11:35:28.875Z,63.30
2023-01-27T11:36:31.275Z,63.26
2023-01-27T11:37:43.204Z,62.42
2023-01-27T11:38:45.288Z,60.83
2023-01-27T11:39:48.513Z,59.20
2023-01-27T11:40:53.227Z,57.38
2023-01-27T11:41:57.169Z,56.62
2023-01-27T11:43:00.797Z,57.10
2023-01-27T11:44:09.487Z,57.81
2023-01-27T11:45:16.472Z,58.44
2023-01-27T11:46:23.929Z,59.29
2023-01-27T11:47:38.775Z,60.17
2023-01-27T11:48:47.440Z,61.21
2023-01-27T11:49:53.009Z,62.01
2023-01-27T11:50:54.893Z,62.42
2023-01-27T11:52:16.038Z,62.99
2023-01-27T11:53:28.721Z,63.33
2023-01-27T11:54:39.332Z,62.13
2023-01-27T11:56:00.735Z,60.49
2023-01-27T11:57:02.618Z,58.39
2023-01-27T11:58:32.957Z,56.80
2023-01-27T11:59:41.771Z,56.57
2023-01-27T12:00:56.732Z,57.35
2023-01-27T12:02:07.273Z,58.24
2023-01-27T12:03:33.625Z,58.94
2023-01-27T12:04:38.300Z,59.85
2023-01-27T12:05:51.810Z,60.48
2023-01-27T12:07:20.848Z,61.14
2023-01-27T12:08:56.006Z,62.23
2023-01-27T12:09:57.814Z,63.63
2023-01-27T12:11:22.995Z,63.62
2023-01-27T12:12:27.386Z,62.13
2023-01-27T12:13:29.402Z,60.68
2023-01-27T12:14:31.213Z,59.23
2023-01-27T12:15:33.527Z,57.35
2023-01-27T12:16:55.940Z,56.15
2023-01-27T12:18:11.350Z,56.39
2023-01-27T12:19:22.141Z,57.30
2023-01-27T12:20:35.147Z,58.14
2023-01-27T12:21:49.890Z,58.61
2023-01-27T12:23:00.183Z,59.42
2023-01-27T12:24:02.477Z,60.06
2023-01-27T12:25:14.358Z,60.54
2023-01-27T12:26:37.497Z,61.02
2023-01-27T12:27:52.198Z,61.39
2023-01-27T12:28:55.268Z,61.97
2023-01-27T12:30:02.912Z,62.32
2023-01-27T12:31:17.804Z,62.70
2023-01-27T12:32:41.362Z,63.39
2023-01-27T12:33:52.025Z,62.47
2023-01-27T12:34:56.541Z,60.73
2023-01-27T12:36:12.009Z,59.11
2023-01-27T12:37:24.058Z,56.96
2023-01-27T12:38:33.191Z,56.25
2023-01-27T12:39:50.380Z,56.82
2023-01-27T12:41:02.292Z,57.89
2023-01-27T12:42:04.356Z,58.82
2023-01-27T12:43:06.180Z,59.39
2023-01-27T12:44:22.410Z,59.95
2023-01-27T12:45:34.949Z,60.48
2023-01-27T12:46:42.437Z,60.84
2023-01-27T12:48:01.530Z,61.20
2023-01-27T12:49:15.220Z,61.72
2023-01-27T12:50:26.638Z,62.13
2023-01-27T12:51:51.238Z,62.55
2023-01-27T12:53:05.886Z,63.13
2023-01-27T12:54:22.734Z,62.39
2023-01-27T12:55:40.948Z,60.90
2023-01-27T12:56:43.699Z,59.13
2023-01-27T12:57:45.571Z,57.24
2023-01-27T12:58:58.403Z,56.23
2023-01-27T13:00:00.314Z,56.49
2023-01-27T13:01:20.536Z,57.01
2023-01-27T13:02:26.318Z,57.76
2023-01-27T13:03:29.891Z,58.45
2023-01-27T13:04:32.336Z,59.12
2023-01-27T13:05:43.370Z,59.64
2023-01-27T13:06:50.648Z,60.08
2023-01-27T13:07:53.990Z,60.65
2023-01-27T13:08:57.755Z,61.10
2023-01-27T13:10:04.054Z,61.45
2023-01-27T13:11:07.054Z,61.95
2023-01-27T13:12:32.127Z,62.33
2023-01-27T13:13:35.245Z,63.12
2023-01-27T13:14:42.219Z,63.39
2023-01-27T13:16:11.493Z,62.51
2023-01-27T13:17:31.178Z,60.29
2023-01-27T13:18:35.404Z,58.04
2023-01-27T13:19:49.707Z,56.48
2023-01-27T13:21:19.437Z,56.19
2023-01-27T13:22:25.060Z,57.08
2023-01-27T13:23:34.897Z,58.02
2023-01-27T13:24:42.610Z,58.76
2023-01-27T13:25:57.179Z,59.42
2023-01-27T13:27:03.970Z,60.12
2023-01-27T13:28:08.865Z,60.78
2023-01-27T13:29:20.187Z,61.34
2023-01-27T13:30:31.559Z,61.97
2023-01-27T13:31:33.461Z,62.63
2023-01-27T13:32:38.168Z,63.37
2023-01-27T13:33:48.784Z,63.26
2023-01-27T13:34:55.360Z,61.78
2023-01-27T13:36:08.326Z,60.12
2023-01-27T13:37:42.287Z,58.00
2023-01-27T13:39:25.135Z,55.78
2023-01-27T13:40:43.505Z,56.28
2023-01-27T13:42:02.557Z,57.18
2023-01-27T13:43:19.917Z,58.13
2023-01-27T13:44:36.604Z,58.89
2023-01-27T13:45:43.324Z,59.56
2023-01-27T13:46:47.511Z,60.19
2023-01-27T13:48:01.309Z,60.74
2023-01-27T13:49:32.017Z,61.28
2023-01-27T13:50:43.192Z,62.09
2023-01-27T13:51:44.939Z,62.70
2023-01-27T13:52:53.257Z,63.46
2023-01-27T13:54:03.661Z,63.34
2023-01-27T13:55:05.958Z,62.14
2023-01-27T13:56:07.820Z,60.68
2023-01-27T13:57:40.492Z,59.14
2023-01-27T13:58:58.659Z,56.56
2023-01-27T14:00:39.483Z,56.33
2023-01-27T14:01:56.055Z,57.45
2023-01-27T14:03:07.908Z,58.54
2023-01-27T14:04:29.113Z,59.48
2023-01-27T14:05:48.931Z,60.35
2023-01-27T14:07:36.100Z,61.09
2023-01-27T14:08:58.444Z,62.17
2023-01-27T14:10:03.592Z,63.30
2023-01-27T14:11:16.853Z,63.68
2023-01-27T14:12:58.607Z,62.75
2023-01-27T14:14:29.416Z,60.33
2023-01-27T14:15:55.678Z,57.73
2023-01-27T14:17:09.711Z,56.31
2023-01-27T14:18:26.959Z,56.63
2023-01-27T14:19:37.636Z,57.51
2023-01-27T14:20:52.214Z,58.41
2023-01-27T14:22:12.833Z,59.44
2023-01-27T14:24:01.006Z,60.47
2023-01-27T14:25:26.104Z,61.86
2023-01-27T14:26:52.165Z,62.66
2023-01-27T14:28:10.202Z,63.56
2023-01-27T14:29:29.092Z,62.86
2023-01-27T14:31:04.160Z,61.21
2023-01-27T14:32:18.232Z,59.07
2023-01-27T14:33:45.108Z,57.08
2023-01-27T14:35:16.536Z,56.74
2023-01-27T14:36:31.450Z,57.89
2023-01-27T14:37:52.755Z,58.82
2023-01-27T14:39:36.923Z,59.88
2023-01-27T14:40:45.138Z,61.10
2023-01-27T14:42:07.776Z,61.88
2023-01-27T14:43:36.640Z,62.77
2023-01-27T14:44:55.565Z,63.61